McAlisterville, Pennsylvania
Current Conditions -  °F | °C
As of 10:53 AM on Friday 19 Dec 2014 (Local Time) from KSEG Reporting Station
Overcast Overcast  
Wind Chill: -2°   Ceiling: 3400
Heat Index:   Visibility: 10mi
Dew Point: -6°   Wind: 10mph
Humidity: 57%   Direction: 310°NW
Pressure: 30.13"   Gusts: NA
Location:  40.64°N, 77.27°W
Report Text: KSEG 191553Z AUTO 31009KT 10SM OVC034 02/M06 A3013 RMK AO2 SLP207 T00221056
Loading
Personal Weather Stations






























Interactive Weather Map New forecast layout! Learn more

10-Day Weather Forecast

Advertisements
Track Severe Weather on mobile